sensor_id;sensor_type;location;lat;lon;timestamp;P1;durP1;ratioP1;P2;durP2;ratioP2
20621;SDS011;10470;42.670;23.354;2022-12-24T00:01:17;55.80;;;27.83;;
20621;SDS011;10470;42.670;23.354;2022-12-24T00:04:02;59.30;;;30.40;;
20621;SDS011;10470;42.670;23.354;2022-12-24T00:06:48;53.00;;;27.40;;
20621;SDS011;10470;42.670;23.354;2022-12-24T00:09:33;55.47;;;28.80;;
20621;SDS011;10470;42.670;23.354;2022-12-24T00:12:18;59.37;;;31.20;;
20621;SDS011;10470;42.670;23.354;2022-12-24T00:15:04;64.90;;;31.50;;
20621;SDS011;10470;42.670;23.354;2022-12-24T00:17:50;56.27;;;29.93;;
20621;SDS011;10470;42.670;23.354;2022-12-24T00:20:36;51.53;;;28.80;;
20621;SDS011;10470;42.670;23.354;2022-12-24T00:23:21;55.83;;;30.70;;
20621;SDS011;10470;42.670;23.354;2022-12-24T00:26:07;50.73;;;28.23;;
20621;SDS011;10470;42.670;23.354;2022-12-24T00:28:52;51.20;;;28.30;;
20621;SDS011;10470;42.670;23.354;2022-12-24T00:31:38;55.70;;;29.40;;
20621;SDS011;10470;42.670;23.354;2022-12-24T00:34:23;55.17;;;28.93;;
20621;SDS011;10470;42.670;23.354;2022-12-24T00:37:09;55.77;;;29.33;;
20621;SDS011;10470;42.670;23.354;2022-12-24T00:39:55;51.80;;;28.67;;
20621;SDS011;10470;42.670;23.354;2022-12-24T00:42:40;47.73;;;27.07;;
20621;SDS011;10470;42.670;23.354;2022-12-24T00:45:26;53.43;;;29.37;;
20621;SDS011;10470;42.670;23.354;2022-12-24T00:48:12;48.43;;;26.37;;
20621;SDS011;10470;42.670;23.354;2022-12-24T00:50:57;57.60;;;27.83;;
20621;SDS011;10470;42.670;23.354;2022-12-24T00:53:43;56.53;;;31.17;;
20621;SDS011;10470;42.670;23.354;2022-12-24T00:56:28;53.07;;;28.73;;
20621;SDS011;10470;42.670;23.354;2022-12-24T00:59:14;62.33;;;32.20;;
20621;SDS011;10470;42.670;23.354;2022-12-24T01:02:00;60.47;;;33.30;;
20621;SDS011;10470;42.670;23.354;2022-12-24T01:04:45;59.97;;;32.83;;
20621;SDS011;10470;42.670;23.354;2022-12-24T01:07:49;52.93;;;27.90;;
20621;SDS011;10470;42.670;23.354;2022-12-24T01:10:35;51.70;;;26.63;;
20621;SDS011;10470;42.670;23.354;2022-12-24T01:13:20;43.83;;;23.80;;
20621;SDS011;10470;42.670;23.354;2022-12-24T01:16:16;47.47;;;24.07;;
20621;SDS011;10470;42.670;23.354;2022-12-24T01:19:03;46.00;;;23.90;;
20621;SDS011;10470;42.670;23.354;2022-12-24T01:21:49;58.33;;;30.27;;
20621;SDS011;10470;42.670;23.354;2022-12-24T01:24:35;59.67;;;29.83;;
20621;SDS011;10470;42.670;23.354;2022-12-24T01:27:20;52.87;;;28.30;;
20621;SDS011;10470;42.670;23.354;2022-12-24T01:30:06;48.40;;;26.33;;
20621;SDS011;10470;42.670;23.354;2022-12-24T01:32:53;47.10;;;24.83;;
20621;SDS011;10470;42.670;23.354;2022-12-24T01:35:39;49.33;;;26.27;;
20621;SDS011;10470;42.670;23.354;2022-12-24T01:38:25;51.53;;;26.43;;
20621;SDS011;10470;42.670;23.354;2022-12-24T01:41:18;47.77;;;25.93;;
20621;SDS011;10470;42.670;23.354;2022-12-24T01:44:26;49.33;;;25.83;;
20621;SDS011;10470;42.670;23.354;2022-12-24T01:50:02;47.50;;;25.80;;
20621;SDS011;10470;42.670;23.354;2022-12-24T01:52:56;46.07;;;25.63;;
20621;SDS011;10470;42.670;23.354;2022-12-24T01:55:42;46.27;;;25.20;;
20621;SDS011;10470;42.670;23.354;2022-12-24T01:58:30;48.23;;;25.13;;
20621;SDS011;10470;42.670;23.354;2022-12-24T02:01:17;45.80;;;25.37;;
20621;SDS011;10470;42.670;23.354;2022-12-24T02:04:04;47.17;;;25.93;;
20621;SDS011;10470;42.670;23.354;2022-12-24T02:07:08;46.97;;;25.83;;
20621;SDS011;10470;42.670;23.354;2022-12-24T02:09:56;44.63;;;25.77;;
20621;SDS011;10470;42.670;23.354;2022-12-24T02:12:43;50.30;;;26.17;;
20621;SDS011;10470;42.670;23.354;2022-12-24T02:15:37;47.37;;;25.30;;
20621;SDS011;10470;42.670;23.354;2022-12-24T02:18:45;44.07;;;23.63;;
20621;SDS011;10470;42.670;23.354;2022-12-24T02:24:47;45.50;;;24.23;;
20621;SDS011;10470;42.670;23.354;2022-12-24T02:27:55;43.20;;;23.10;;
20621;SDS011;10470;42.670;23.354;2022-12-24T02:30:44;45.07;;;24.87;;
20621;SDS011;10470;42.670;23.354;2022-12-24T02:33:36;43.17;;;24.07;;
20621;SDS011;10470;42.670;23.354;2022-12-24T02:36:43;44.63;;;24.30;;
20621;SDS011;10470;42.670;23.354;2022-12-24T02:42:45;41.63;;;22.30;;
20621;SDS011;10470;42.670;23.354;2022-12-24T02:45:35;40.70;;;22.37;;
20621;SDS011;10470;42.670;23.354;2022-12-24T02:48:25;45.97;;;23.80;;
20621;SDS011;10470;42.670;23.354;2022-12-24T02:51:14;39.67;;;22.40;;
20621;SDS011;10470;42.670;23.354;2022-12-24T02:54:00;42.00;;;22.43;;
20621;SDS011;10470;42.670;23.354;2022-12-24T03:00:00;38.57;;;21.13;;
20621;SDS011;10470;42.670;23.354;2022-12-24T03:05:54;39.23;;;22.53;;
20621;SDS011;10470;42.670;23.354;2022-12-24T03:08:43;46.23;;;23.77;;
20621;SDS011;10470;42.670;23.354;2022-12-24T03:11:37;44.13;;;22.50;;
20621;SDS011;10470;42.670;23.354;2022-12-24T03:14:30;41.03;;;23.00;;
20621;SDS011;10470;42.670;23.354;2022-12-24T03:17:18;43.07;;;23.67;;
20621;SDS011;10470;42.670;23.354;2022-12-24T03:20:05;44.93;;;24.17;;
20621;SDS011;10470;42.670;23.354;2022-12-24T03:22:52;43.80;;;24.23;;
20621;SDS011;10470;42.670;23.354;2022-12-24T03:25:38;42.13;;;23.27;;
20621;SDS011;10470;42.670;23.354;2022-12-24T03:28:26;40.40;;;22.37;;
20621;SDS011;10470;42.670;23.354;2022-12-24T03:31:13;49.70;;;23.83;;
20621;SDS011;10470;42.670;23.354;2022-12-24T03:33:59;43.87;;;23.13;;
20621;SDS011;10470;42.670;23.354;2022-12-24T03:36:45;43.37;;;22.60;;
20621;SDS011;10470;42.670;23.354;2022-12-24T03:39:32;38.57;;;21.97;;
20621;SDS011;10470;42.670;23.354;2022-12-24T03:42:17;40.63;;;22.13;;
20621;SDS011;10470;42.670;23.354;2022-12-24T03:45:03;50.93;;;27.17;;
20621;SDS011;10470;42.670;23.354;2022-12-24T03:47:49;79.57;;;39.27;;
20621;SDS011;10470;42.670;23.354;2022-12-24T03:50:34;62.73;;;33.00;;
20621;SDS011;10470;42.670;23.354;2022-12-24T03:53:20;64.47;;;31.20;;
20621;SDS011;10470;42.670;23.354;2022-12-24T03:56:05;46.37;;;26.03;;
20621;SDS011;10470;42.670;23.354;2022-12-24T03:58:51;49.47;;;25.67;;
20621;SDS011;10470;42.670;23.354;2022-12-24T04:01:37;48.90;;;24.53;;
20621;SDS011;10470;42.670;23.354;2022-12-24T04:04:23;47.57;;;25.03;;
20621;SDS011;10470;42.670;23.354;2022-12-24T04:07:07;42.83;;;24.87;;
20621;SDS011;10470;42.670;23.354;2022-12-24T04:09:52;49.67;;;26.27;;
20621;SDS011;10470;42.670;23.354;2022-12-24T04:12:37;43.57;;;24.13;;
20621;SDS011;10470;42.670;23.354;2022-12-24T04:15:23;45.20;;;24.03;;
20621;SDS011;10470;42.670;23.354;2022-12-24T04:18:09;48.33;;;26.20;;
20621;SDS011;10470;42.670;23.354;2022-12-24T04:20:54;46.07;;;23.20;;
20621;SDS011;10470;42.670;23.354;2022-12-24T04:23:40;43.93;;;25.17;;
20621;SDS011;10470;42.670;23.354;2022-12-24T04:26:26;54.03;;;27.93;;
20621;SDS011;10470;42.670;23.354;2022-12-24T04:29:11;50.83;;;26.67;;
20621;SDS011;10470;42.670;23.354;2022-12-24T04:31:57;51.03;;;26.73;;
20621;SDS011;10470;42.670;23.354;2022-12-24T04:34:43;49.50;;;25.37;;
20621;SDS011;10470;42.670;23.354;2022-12-24T04:37:28;53.17;;;27.57;;
20621;SDS011;10470;42.670;23.354;2022-12-24T04:40:13;51.70;;;27.17;;
20621;SDS011;10470;42.670;23.354;2022-12-24T04:42:59;44.73;;;25.13;;
20621;SDS011;10470;42.670;23.354;2022-12-24T04:45:44;44.63;;;26.03;;
20621;SDS011;10470;42.670;23.354;2022-12-24T04:48:30;46.00;;;24.07;;
20621;SDS011;10470;42.670;23.354;2022-12-24T04:51:16;48.90;;;26.23;;
20621;SDS011;10470;42.670;23.354;2022-12-24T04:54:02;52.00;;;27.73;;
20621;SDS011;10470;42.670;23.354;2022-12-24T04:56:48;45.73;;;24.93;;
20621;SDS011;10470;42.670;23.354;2022-12-24T04:59:33;44.27;;;24.07;;
20621;SDS011;10470;42.670;23.354;2022-12-24T05:02:18;48.43;;;24.53;;
20621;SDS011;10470;42.670;23.354;2022-12-24T05:05:04;42.07;;;22.67;;
20621;SDS011;10470;42.670;23.354;2022-12-24T05:07:50;45.33;;;23.37;;
20621;SDS011;10470;42.670;23.354;2022-12-24T05:10:35;42.80;;;23.60;;
20621;SDS011;10470;42.670;23.354;2022-12-24T05:13:21;36.73;;;21.03;;
20621;SDS011;10470;42.670;23.354;2022-12-24T05:16:07;43.13;;;23.33;;
20621;SDS011;10470;42.670;23.354;2022-12-24T05:18:52;41.50;;;23.40;;
20621;SDS011;10470;42.670;23.354;2022-12-24T05:21:38;41.70;;;22.60;;
20621;SDS011;10470;42.670;23.354;2022-12-24T05:24:17;48.07;;;24.87;;
20621;SDS011;10470;42.670;23.354;2022-12-24T05:27:20;47.20;;;24.53;;
20621;SDS011;10470;42.670;23.354;2022-12-24T05:30:06;45.90;;;23.20;;
20621;SDS011;10470;42.670;23.354;2022-12-24T05:32:52;44.27;;;23.20;;
20621;SDS011;10470;42.670;23.354;2022-12-24T05:35:38;42.83;;;23.27;;
20621;SDS011;10470;42.670;23.354;2022-12-24T05:38:23;48.37;;;25.57;;
20621;SDS011;10470;42.670;23.354;2022-12-24T05:41:09;50.27;;;24.27;;
20621;SDS011;10470;42.670;23.354;2022-12-24T05:43:55;46.03;;;24.27;;
20621;SDS011;10470;42.670;23.354;2022-12-24T05:46:40;75.07;;;40.60;;
20621;SDS011;10470;42.670;23.354;2022-12-24T05:49:26;84.47;;;43.53;;
20621;SDS011;10470;42.670;23.354;2022-12-24T05:52:12;72.73;;;36.17;;
20621;SDS011;10470;42.670;23.354;2022-12-24T05:54:58;93.20;;;46.63;;
20621;SDS011;10470;42.670;23.354;2022-12-24T05:57:43;90.67;;;47.20;;
20621;SDS011;10470;42.670;23.354;2022-12-24T06:00:29;67.43;;;34.60;;
20621;SDS011;10470;42.670;23.354;2022-12-24T06:03:14;50.07;;;26.20;;
20621;SDS011;10470;42.670;23.354;2022-12-24T06:06:00;53.73;;;28.53;;
20621;SDS011;10470;42.670;23.354;2022-12-24T06:08:49;52.30;;;28.70;;
20621;SDS011;10470;42.670;23.354;2022-12-24T06:11:36;62.33;;;32.67;;
20621;SDS011;10470;42.670;23.354;2022-12-24T06:14:21;70.97;;;35.60;;
20621;SDS011;10470;42.670;23.354;2022-12-24T06:17:07;59.97;;;30.87;;
20621;SDS011;10470;42.670;23.354;2022-12-24T06:19:52;60.27;;;30.63;;
20621;SDS011;10470;42.670;23.354;2022-12-24T06:22:38;61.67;;;33.73;;
20621;SDS011;10470;42.670;23.354;2022-12-24T06:25:23;48.07;;;27.37;;
20621;SDS011;10470;42.670;23.354;2022-12-24T06:28:08;60.03;;;30.17;;
20621;SDS011;10470;42.670;23.354;2022-12-24T06:30:48;75.23;;;40.43;;
20621;SDS011;10470;42.670;23.354;2022-12-24T06:33:34;131.37;;;70.00;;
20621;SDS011;10470;42.670;23.354;2022-12-24T06:36:21;190.20;;;94.60;;
20621;SDS011;10470;42.670;23.354;2022-12-24T06:39:07;174.40;;;89.00;;
20621;SDS011;10470;42.670;23.354;2022-12-24T06:41:53;183.37;;;89.07;;
20621;SDS011;10470;42.670;23.354;2022-12-24T06:44:38;168.60;;;86.20;;
20621;SDS011;10470;42.670;23.354;2022-12-24T06:47:24;161.77;;;81.57;;
20621;SDS011;10470;42.670;23.354;2022-12-24T06:50:10;160.47;;;78.07;;
20621;SDS011;10470;42.670;23.354;2022-12-24T06:52:50;156.70;;;74.03;;
20621;SDS011;10470;42.670;23.354;2022-12-24T06:55:36;144.27;;;69.90;;
20621;SDS011;10470;42.670;23.354;2022-12-24T06:58:22;150.97;;;73.07;;
20621;SDS011;10470;42.670;23.354;2022-12-24T07:01:08;133.60;;;66.40;;
20621;SDS011;10470;42.670;23.354;2022-12-24T07:03:55;144.07;;;71.37;;
20621;SDS011;10470;42.670;23.354;2022-12-24T07:06:40;128.37;;;62.47;;
20621;SDS011;10470;42.670;23.354;2022-12-24T07:09:26;123.37;;;61.43;;
20621;SDS011;10470;42.670;23.354;2022-12-24T07:12:11;131.67;;;65.03;;
20621;SDS011;10470;42.670;23.354;2022-12-24T07:14:57;123.10;;;62.30;;
20621;SDS011;10470;42.670;23.354;2022-12-24T07:17:42;121.07;;;61.00;;
20621;SDS011;10470;42.670;23.354;2022-12-24T07:20:28;124.10;;;59.33;;
20621;SDS011;10470;42.670;23.354;2022-12-24T07:23:13;114.10;;;56.87;;
20621;SDS011;10470;42.670;23.354;2022-12-24T07:25:59;108.60;;;54.97;;
20621;SDS011;10470;42.670;23.354;2022-12-24T07:28:46;116.63;;;54.77;;
20621;SDS011;10470;42.670;23.354;2022-12-24T07:31:32;102.13;;;53.97;;
20621;SDS011;10470;42.670;23.354;2022-12-24T07:34:17;102.40;;;51.23;;
20621;SDS011;10470;42.670;23.354;2022-12-24T07:37:03;101.60;;;51.93;;
20621;SDS011;10470;42.670;23.354;2022-12-24T07:39:48;106.87;;;52.40;;
20621;SDS011;10470;42.670;23.354;2022-12-24T07:42:34;98.00;;;51.13;;
20621;SDS011;10470;42.670;23.354;2022-12-24T07:45:19;94.37;;;52.00;;
20621;SDS011;10470;42.670;23.354;2022-12-24T07:48:05;99.70;;;51.67;;
20621;SDS011;10470;42.670;23.354;2022-12-24T07:50:50;94.83;;;49.20;;
20621;SDS011;10470;42.670;23.354;2022-12-24T07:53:36;85.13;;;44.90;;
20621;SDS011;10470;42.670;23.354;2022-12-24T07:56:22;75.63;;;40.60;;
20621;SDS011;10470;42.670;23.354;2022-12-24T07:59:07;85.40;;;43.83;;
20621;SDS011;10470;42.670;23.354;2022-12-24T08:01:56;64.57;;;36.03;;
20621;SDS011;10470;42.670;23.354;2022-12-24T08:04:42;63.43;;;34.30;;
20621;SDS011;10470;42.670;23.354;2022-12-24T08:07:28;63.13;;;33.50;;
20621;SDS011;10470;42.670;23.354;2022-12-24T08:10:13;61.63;;;34.80;;
20621;SDS011;10470;42.670;23.354;2022-12-24T08:12:58;57.13;;;31.00;;
20621;SDS011;10470;42.670;23.354;2022-12-24T08:15:44;47.40;;;26.80;;
20621;SDS011;10470;42.670;23.354;2022-12-24T08:18:30;50.70;;;27.87;;
20621;SDS011;10470;42.670;23.354;2022-12-24T08:21:15;55.53;;;29.93;;
20621;SDS011;10470;42.670;23.354;2022-12-24T08:24:01;54.13;;;29.50;;
20621;SDS011;10470;42.670;23.354;2022-12-24T08:26:46;87.90;;;42.20;;
20621;SDS011;10470;42.670;23.354;2022-12-24T08:29:32;70.40;;;36.27;;
20621;SDS011;10470;42.670;23.354;2022-12-24T08:32:17;48.53;;;27.80;;
20621;SDS011;10470;42.670;23.354;2022-12-24T08:35:03;46.73;;;26.77;;
20621;SDS011;10470;42.670;23.354;2022-12-24T08:37:48;57.53;;;31.90;;
20621;SDS011;10470;42.670;23.354;2022-12-24T08:40:34;68.10;;;35.60;;
20621;SDS011;10470;42.670;23.354;2022-12-24T08:43:20;58.37;;;33.97;;
20621;SDS011;10470;42.670;23.354;2022-12-24T08:46:06;64.50;;;33.50;;
20621;SDS011;10470;42.670;23.354;2022-12-24T08:48:51;56.17;;;32.23;;
20621;SDS011;10470;42.670;23.354;2022-12-24T08:51:31;56.47;;;31.57;;
20621;SDS011;10470;42.670;23.354;2022-12-24T08:54:16;60.10;;;31.20;;
20621;SDS011;10470;42.670;23.354;2022-12-24T08:57:02;57.63;;;31.37;;
20621;SDS011;10470;42.670;23.354;2022-12-24T08:59:48;66.13;;;34.77;;
20621;SDS011;10470;42.670;23.354;2022-12-24T09:02:34;60.27;;;33.43;;
20621;SDS011;10470;42.670;23.354;2022-12-24T09:05:19;59.03;;;31.80;;
20621;SDS011;10470;42.670;23.354;2022-12-24T09:08:05;46.37;;;25.90;;
20621;SDS011;10470;42.670;23.354;2022-12-24T09:10:50;47.60;;;26.03;;
20621;SDS011;10470;42.670;23.354;2022-12-24T09:13:36;49.20;;;26.57;;
20621;SDS011;10470;42.670;23.354;2022-12-24T09:16:22;45.43;;;26.23;;
20621;SDS011;10470;42.670;23.354;2022-12-24T09:19:07;45.53;;;26.60;;
20621;SDS011;10470;42.670;23.354;2022-12-24T09:21:53;48.70;;;25.60;;
20621;SDS011;10470;42.670;23.354;2022-12-24T09:24:38;42.83;;;24.23;;
20621;SDS011;10470;42.670;23.354;2022-12-24T09:27:24;40.80;;;22.33;;
20621;SDS011;10470;42.670;23.354;2022-12-24T09:30:10;86.07;;;47.87;;
20621;SDS011;10470;42.670;23.354;2022-12-24T09:32:56;98.23;;;52.77;;
20621;SDS011;10470;42.670;23.354;2022-12-24T09:35:41;90.43;;;49.67;;
20621;SDS011;10470;42.670;23.354;2022-12-24T09:38:27;90.47;;;49.53;;
20621;SDS011;10470;42.670;23.354;2022-12-24T09:44:40;98.60;;;52.30;;
20621;SDS011;10470;42.670;23.354;2022-12-24T09:47:36;102.00;;;55.63;;
20621;SDS011;10470;42.670;23.354;2022-12-24T09:50:35;97.50;;;53.93;;
20621;SDS011;10470;42.670;23.354;2022-12-24T09:56:38;104.17;;;56.30;;
20621;SDS011;10470;42.670;23.354;2022-12-24T09:59:28;102.83;;;54.57;;
20621;SDS011;10470;42.670;23.354;2022-12-24T10:02:24;91.17;;;51.23;;
20621;SDS011;10470;42.670;23.354;2022-12-24T10:05:14;95.13;;;49.47;;
20621;SDS011;10470;42.670;23.354;2022-12-24T10:08:25;95.87;;;51.13;;
20621;SDS011;10470;42.670;23.354;2022-12-24T10:20:30;101.00;;;55.03;;
20621;SDS011;10470;42.670;23.354;2022-12-24T10:23:31;102.60;;;55.70;;
20621;SDS011;10470;42.670;23.354;2022-12-24T10:29:26;91.33;;;50.80;;
20621;SDS011;10470;42.670;23.354;2022-12-24T10:32:15;96.90;;;53.23;;
20621;SDS011;10470;42.670;23.354;2022-12-24T10:34:56;94.50;;;49.97;;
20621;SDS011;10470;42.670;23.354;2022-12-24T10:37:46;93.70;;;49.07;;
20621;SDS011;10470;42.670;23.354;2022-12-24T10:43:22;95.10;;;47.77;;
20621;SDS011;10470;42.670;23.354;2022-12-24T10:46:20;83.97;;;46.00;;
20621;SDS011;10470;42.670;23.354;2022-12-24T10:49:14;81.93;;;44.20;;
20621;SDS011;10470;42.670;23.354;2022-12-24T10:52:13;78.27;;;42.47;;
20621;SDS011;10470;42.670;23.354;2022-12-24T10:55:11;75.90;;;41.13;;
20621;SDS011;10470;42.670;23.354;2022-12-24T10:58:12;76.97;;;39.87;;
20621;SDS011;10470;42.670;23.354;2022-12-24T11:01:02;75.97;;;41.03;;
20621;SDS011;10470;42.670;23.354;2022-12-24T11:03:58;74.53;;;40.37;;
20621;SDS011;10470;42.670;23.354;2022-12-24T11:09:39;72.80;;;40.77;;
20621;SDS011;10470;42.670;23.354;2022-12-24T11:12:26;65.07;;;39.10;;
20621;SDS011;10470;42.670;23.354;2022-12-24T11:18:12;63.47;;;35.73;;
20621;SDS011;10470;42.670;23.354;2022-12-24T11:20:59;65.83;;;36.37;;
20621;SDS011;10470;42.670;23.354;2022-12-24T11:23:49;65.77;;;34.97;;
20621;SDS011;10470;42.670;23.354;2022-12-24T11:26:37;67.03;;;36.67;;
20621;SDS011;10470;42.670;23.354;2022-12-24T11:29:24;63.57;;;35.17;;
20621;SDS011;10470;42.670;23.354;2022-12-24T11:32:16;60.33;;;34.20;;
20621;SDS011;10470;42.670;23.354;2022-12-24T11:35:05;58.27;;;32.97;;
20621;SDS011;10470;42.670;23.354;2022-12-24T11:40:47;50.73;;;30.60;;
20621;SDS011;10470;42.670;23.354;2022-12-24T11:43:42;48.23;;;28.20;;
20621;SDS011;10470;42.670;23.354;2022-12-24T11:46:36;45.00;;;27.20;;
20621;SDS011;10470;42.670;23.354;2022-12-24T11:49:30;53.23;;;29.63;;
20621;SDS011;10470;42.670;23.354;2022-12-24T11:52:18;49.50;;;29.27;;
20621;SDS011;10470;42.670;23.354;2022-12-24T12:01:11;55.83;;;30.07;;
20621;SDS011;10470;42.670;23.354;2022-12-24T12:04:15;48.53;;;29.57;;
20621;SDS011;10470;42.670;23.354;2022-12-24T12:10:04;47.23;;;29.47;;
20621;SDS011;10470;42.670;23.354;2022-12-24T12:18:37;52.17;;;29.17;;
20621;SDS011;10470;42.670;23.354;2022-12-24T12:21:25;51.93;;;29.47;;
20621;SDS011;10470;42.670;23.354;2022-12-24T12:24:21;51.80;;;30.80;;
20621;SDS011;10470;42.670;23.354;2022-12-24T12:27:18;50.60;;;29.57;;
20621;SDS011;10470;42.670;23.354;2022-12-24T12:30:13;52.67;;;30.07;;
20621;SDS011;10470;42.670;23.354;2022-12-24T12:33:03;54.47;;;30.83;;
20621;SDS011;10470;42.670;23.354;2022-12-24T12:35:59;46.90;;;29.50;;
20621;SDS011;10470;42.670;23.354;2022-12-24T12:38:49;50.37;;;29.10;;
20621;SDS011;10470;42.670;23.354;2022-12-24T12:41:37;49.37;;;29.27;;
20621;SDS011;10470;42.670;23.354;2022-12-24T12:57:11;58.73;;;33.77;;
20621;SDS011;10470;42.670;23.354;2022-12-24T13:03:02;85.33;;;47.63;;
20621;SDS011;10470;42.670;23.354;2022-12-24T13:21:03;109.13;;;59.03;;
20621;SDS011;10470;42.670;23.354;2022-12-24T13:23:48;107.73;;;58.57;;
20621;SDS011;10470;42.670;23.354;2022-12-24T13:26:34;97.10;;;55.90;;
20621;SDS011;10470;42.670;23.354;2022-12-24T13:29:39;100.17;;;54.37;;
20621;SDS011;10470;42.670;23.354;2022-12-24T13:32:37;101.93;;;54.83;;
20621;SDS011;10470;42.670;23.354;2022-12-24T13:35:25;95.10;;;52.63;;
20621;SDS011;10470;42.670;23.354;2022-12-24T13:46:58;85.47;;;48.83;;
20621;SDS011;10470;42.670;23.354;2022-12-24T13:49:50;83.33;;;46.37;;
20621;SDS011;10470;42.670;23.354;2022-12-24T13:52:37;79.87;;;46.43;;
20621;SDS011;10470;42.670;23.354;2022-12-24T13:55:22;80.97;;;46.30;;
20621;SDS011;10470;42.670;23.354;2022-12-24T13:58:13;83.70;;;45.13;;
20621;SDS011;10470;42.670;23.354;2022-12-24T14:01:09;84.90;;;48.40;;
20621;SDS011;10470;42.670;23.354;2022-12-24T14:06:39;78.30;;;44.37;;
20621;SDS011;10470;42.670;23.354;2022-12-24T14:09:26;79.90;;;43.83;;
20621;SDS011;10470;42.670;23.354;2022-12-24T14:12:14;74.97;;;41.97;;
20621;SDS011;10470;42.670;23.354;2022-12-24T14:18:41;76.53;;;42.30;;
20621;SDS011;10470;42.670;23.354;2022-12-24T14:21:31;71.67;;;42.37;;
20621;SDS011;10470;42.670;23.354;2022-12-24T14:24:21;78.47;;;43.93;;
20621;SDS011;10470;42.670;23.354;2022-12-24T14:27:14;83.80;;;46.90;;
20621;SDS011;10470;42.670;23.354;2022-12-24T14:32:53;102.47;;;54.87;;
20621;SDS011;10470;42.670;23.354;2022-12-24T14:35:39;89.50;;;52.13;;
20621;SDS011;10470;42.670;23.354;2022-12-24T14:38:24;100.20;;;53.53;;
20621;SDS011;10470;42.670;23.354;2022-12-24T14:47:21;87.47;;;48.03;;
20621;SDS011;10470;42.670;23.354;2022-12-24T14:53:14;73.83;;;39.53;;
20621;SDS011;10470;42.670;23.354;2022-12-24T14:56:22;63.13;;;35.20;;
20621;SDS011;10470;42.670;23.354;2022-12-24T14:59:13;50.53;;;29.73;;
20621;SDS011;10470;42.670;23.354;2022-12-24T15:05:30;43.27;;;24.60;;
20621;SDS011;10470;42.670;23.354;2022-12-24T15:08:16;38.10;;;23.03;;
20621;SDS011;10470;42.670;23.354;2022-12-24T15:11:07;32.80;;;19.43;;
20621;SDS011;10470;42.670;23.354;2022-12-24T15:13:55;28.00;;;15.20;;
20621;SDS011;10470;42.670;23.354;2022-12-24T15:16:47;26.87;;;16.73;;
20621;SDS011;10470;42.670;23.354;2022-12-24T15:19:39;25.37;;;15.37;;
20621;SDS011;10470;42.670;23.354;2022-12-24T15:22:28;23.83;;;15.37;;
20621;SDS011;10470;42.670;23.354;2022-12-24T15:25:17;23.90;;;15.30;;
20621;SDS011;10470;42.670;23.354;2022-12-24T15:28:14;23.53;;;13.93;;
20621;SDS011;10470;42.670;23.354;2022-12-24T15:31:10;21.53;;;13.00;;
20621;SDS011;10470;42.670;23.354;2022-12-24T15:34:00;20.13;;;13.40;;
20621;SDS011;10470;42.670;23.354;2022-12-24T15:36:45;23.73;;;14.47;;
20621;SDS011;10470;42.670;23.354;2022-12-24T15:39:31;19.50;;;12.37;;
20621;SDS011;10470;42.670;23.354;2022-12-24T15:42:17;21.03;;;12.97;;
20621;SDS011;10470;42.670;23.354;2022-12-24T15:45:10;22.93;;;12.60;;
20621;SDS011;10470;42.670;23.354;2022-12-24T15:47:58;19.60;;;12.73;;
20621;SDS011;10470;42.670;23.354;2022-12-24T15:50:46;22.83;;;14.23;;
20621;SDS011;10470;42.670;23.354;2022-12-24T15:53:36;27.73;;;15.73;;
20621;SDS011;10470;42.670;23.354;2022-12-24T15:56:32;40.27;;;19.27;;
20621;SDS011;10470;42.670;23.354;2022-12-24T15:59:29;29.23;;;16.80;;
20621;SDS011;10470;42.670;23.354;2022-12-24T16:02:33;26.40;;;16.37;;
20621;SDS011;10470;42.670;23.354;2022-12-24T16:05:27;30.33;;;17.30;;
20621;SDS011;10470;42.670;23.354;2022-12-24T16:11:17;28.73;;;17.00;;
20621;SDS011;10470;42.670;23.354;2022-12-24T16:14:08;30.30;;;17.07;;
20621;SDS011;10470;42.670;23.354;2022-12-24T16:16:58;21.27;;;13.27;;
20621;SDS011;10470;42.670;23.354;2022-12-24T16:19:45;25.83;;;16.07;;
20621;SDS011;10470;42.670;23.354;2022-12-24T16:22:33;22.23;;;13.97;;
20621;SDS011;10470;42.670;23.354;2022-12-24T16:25:26;23.83;;;15.47;;
20621;SDS011;10470;42.670;23.354;2022-12-24T16:28:13;21.67;;;14.40;;
20621;SDS011;10470;42.670;23.354;2022-12-24T16:30:59;26.33;;;16.03;;
20621;SDS011;10470;42.670;23.354;2022-12-24T16:33:45;25.80;;;16.37;;
20621;SDS011;10470;42.670;23.354;2022-12-24T16:36:31;58.27;;;34.73;;
20621;SDS011;10470;42.670;23.354;2022-12-24T16:39:18;71.30;;;42.43;;
20621;SDS011;10470;42.670;23.354;2022-12-24T16:42:09;86.07;;;52.20;;
20621;SDS011;10470;42.670;23.354;2022-12-24T16:45:13;92.37;;;53.27;;
20621;SDS011;10470;42.670;23.354;2022-12-24T16:47:58;83.80;;;50.00;;
20621;SDS011;10470;42.670;23.354;2022-12-24T16:50:44;84.30;;;49.40;;
20621;SDS011;10470;42.670;23.354;2022-12-24T16:53:29;70.60;;;42.53;;
20621;SDS011;10470;42.670;23.354;2022-12-24T16:56:15;64.60;;;40.93;;
20621;SDS011;10470;42.670;23.354;2022-12-24T16:59:01;64.47;;;38.47;;
20621;SDS011;10470;42.670;23.354;2022-12-24T17:01:46;69.47;;;40.63;;
20621;SDS011;10470;42.670;23.354;2022-12-24T17:04:32;65.90;;;39.43;;
20621;SDS011;10470;42.670;23.354;2022-12-24T17:07:19;61.13;;;37.07;;
20621;SDS011;10470;42.670;23.354;2022-12-24T17:10:10;41.47;;;24.77;;
20621;SDS011;10470;42.670;23.354;2022-12-24T17:12:57;55.20;;;32.17;;
20621;SDS011;10470;42.670;23.354;2022-12-24T17:15:43;54.97;;;32.63;;
20621;SDS011;10470;42.670;23.354;2022-12-24T17:18:29;29.87;;;18.63;;
20621;SDS011;10470;42.670;23.354;2022-12-24T17:21:14;22.70;;;14.43;;
20621;SDS011;10470;42.670;23.354;2022-12-24T17:24:01;23.00;;;14.27;;
20621;SDS011;10470;42.670;23.354;2022-12-24T17:26:47;23.37;;;15.00;;
20621;SDS011;10470;42.670;23.354;2022-12-24T17:29:32;22.60;;;13.80;;
20621;SDS011;10470;42.670;23.354;2022-12-24T17:32:18;22.30;;;14.60;;
20621;SDS011;10470;42.670;23.354;2022-12-24T17:35:04;23.73;;;14.73;;
20621;SDS011;10470;42.670;23.354;2022-12-24T17:37:50;24.10;;;14.17;;
20621;SDS011;10470;42.670;23.354;2022-12-24T17:40:19;27.73;;;16.77;;
20621;SDS011;10470;42.670;23.354;2022-12-24T17:43:05;25.63;;;15.03;;
20621;SDS011;10470;42.670;23.354;2022-12-24T17:45:50;25.77;;;15.33;;
20621;SDS011;10470;42.670;23.354;2022-12-24T17:48:36;24.00;;;15.13;;
20621;SDS011;10470;42.670;23.354;2022-12-24T17:51:22;25.03;;;14.90;;
20621;SDS011;10470;42.670;23.354;2022-12-24T17:54:07;25.23;;;15.93;;
20621;SDS011;10470;42.670;23.354;2022-12-24T17:56:53;23.40;;;14.03;;
20621;SDS011;10470;42.670;23.354;2022-12-24T17:59:38;24.40;;;15.87;;
20621;SDS011;10470;42.670;23.354;2022-12-24T18:02:24;25.30;;;14.93;;
20621;SDS011;10470;42.670;23.354;2022-12-24T18:05:09;22.67;;;13.50;;
20621;SDS011;10470;42.670;23.354;2022-12-24T18:07:55;20.87;;;13.57;;
20621;SDS011;10470;42.670;23.354;2022-12-24T18:10:40;23.70;;;13.87;;
20621;SDS011;10470;42.670;23.354;2022-12-24T18:13:26;24.07;;;14.57;;